Terminal Aerodrome Forecast
Issued by NWS Twin Cities, MN

Home | Current Version | Previous Version | Graphics & Text | Print | Product List | Glossary On
Versions: 1 2 3 4 5 6 7 8 9 10 11 12 13 14
000
FTUS43 KMPX 181138
TAFEAU
TAF
KEAU 181138Z 1812/1912 06008KT P6SM BKN030
     FM181800 03010KT P6SM VCSH OVC020
     FM182100 36009KT P6SM VCSH OVC010
     FM190000 01012G20KT P6SM OVC020
     FM190200 02012G21KT P6SM BKN060
     FM190800 36008KT P6SM FEW250=

USA.gov is the U.S. government's official web portal to all federal, state and local government web resources and services.